createdAt,value
2022-09-12T00:00:03.846Z,5.600000
2022-09-12T00:01:00.443Z,5.600000
2022-09-12T00:02:00.530Z,5.600000
2022-09-12T00:03:00.452Z,5.600000
2022-09-12T00:04:02.044Z,4.800000
2022-09-12T00:05:03.391Z,4.800000
2022-09-12T00:06:00.557Z,4.800000
2022-09-12T00:07:00.469Z,4.000000
2022-09-12T00:08:00.535Z,4.000000
2022-09-12T00:09:00.488Z,4.000000
2022-09-12T00:10:04.820Z,0.000000
2022-09-12T00:11:00.493Z,0.000000
2022-09-12T00:12:00.610Z,0.000000
2022-09-12T00:13:00.514Z,0.000000
2022-09-12T00:14:00.559Z,0.000000
2022-09-12T00:15:03.492Z,4.300000
2022-09-12T00:16:00.586Z,4.300000
2022-09-12T00:17:00.539Z,4.300000
2022-09-12T00:18:02.201Z,4.600000
2022-09-12T00:19:00.553Z,4.600000
2022-09-12T00:20:03.733Z,5.600000
2022-09-12T00:21:00.591Z,5.600000
2022-09-12T00:22:00.657Z,5.600000
2022-09-12T00:23:00.589Z,5.600000
2022-09-12T00:24:00.855Z,5.600000
2022-09-12T00:25:03.472Z,5.600000
2022-09-12T00:26:00.694Z,5.600000
2022-09-12T00:27:00.624Z,5.100000
2022-09-12T00:28:00.685Z,5.100000
2022-09-12T00:29:00.630Z,5.100000
2022-09-12T00:30:04.183Z,4.000000
2022-09-12T00:31:00.652Z,4.000000
2022-09-12T00:32:02.031Z,4.000000
2022-09-12T00:33:00.667Z,7.000000
2022-09-12T00:34:00.798Z,7.000000
2022-09-12T00:35:03.543Z,7.000000
2022-09-12T00:36:00.777Z,7.000000
2022-09-12T00:37:00.689Z,4.500000
2022-09-12T00:38:00.770Z,4.500000
2022-09-12T00:39:00.704Z,4.500000
2022-09-12T00:40:04.120Z,0.000000
2022-09-12T00:41:00.719Z,0.000000
2022-09-12T00:42:00.987Z,0.000000
2022-09-12T00:43:00.766Z,0.000000
2022-09-12T00:44:00.807Z,0.000000
2022-09-12T00:45:04.243Z,5.100000
2022-09-12T00:46:02.335Z,5.100000
2022-09-12T00:47:00.793Z,5.100000
2022-09-12T00:48:00.891Z,5.100000
2022-09-12T00:49:00.787Z,5.100000
2022-09-12T00:50:03.961Z,4.500000
2022-09-12T00:51:00.811Z,4.500000
2022-09-12T00:52:00.881Z,4.500000
2022-09-12T00:53:00.825Z,0.000000
2022-09-12T00:54:00.926Z,0.000000
2022-09-12T00:55:03.924Z,6.000000
2022-09-12T00:56:00.916Z,6.000000
2022-09-12T00:57:00.858Z,6.000000
2022-09-12T00:58:00.930Z,6.000000
2022-09-12T00:59:00.869Z,6.000000
2022-09-12T01:00:04.149Z,4.000000
2022-09-12T01:01:01.063Z,4.000000
2022-09-12T01:02:01.128Z,4.000000
2022-09-12T01:03:00.911Z,4.700000
2022-09-12T01:04:00.980Z,4.700000
2022-09-12T01:05:03.914Z,5.600000
2022-09-12T01:06:01.001Z,5.600000
2022-09-12T01:07:00.938Z,5.600000
2022-09-12T01:08:01.012Z,6.200000
2022-09-12T01:09:00.958Z,6.200000
2022-09-12T01:10:04.271Z,7.000000
2022-09-12T01:11:00.961Z,7.000000
2022-09-12T01:12:01.036Z,7.000000
2022-09-12T01:13:00.985Z,7.000000
2022-09-12T01:14:02.396Z,7.000000
2022-09-12T01:15:04.029Z,7.000000
2022-09-12T01:16:01.101Z,4.800000
2022-09-12T01:17:01.010Z,4.800000
2022-09-12T01:18:01.084Z,5.300000
2022-09-12T01:19:01.014Z,5.300000
2022-09-12T01:20:04.509Z,5.300000
2022-09-12T01:21:01.045Z,5.300000
2022-09-12T01:22:01.147Z,5.300000
2022-09-12T01:23:01.049Z,7.600000
2022-09-12T01:24:01.134Z,7.600000
2022-09-12T01:25:03.931Z,7.600000
2022-09-12T01:26:01.136Z,7.600000
2022-09-12T01:27:01.084Z,7.600000
2022-09-12T01:28:02.619Z,6.400000
2022-09-12T01:29:01.091Z,6.400000
2022-09-12T01:30:05.509Z,6.400000
2022-09-12T01:31:01.103Z,6.400000
2022-09-12T01:32:01.191Z,6.400000
2022-09-12T01:33:01.125Z,4.800000
2022-09-12T01:34:01.220Z,4.800000
2022-09-12T01:35:04.009Z,4.800000
2022-09-12T01:36:01.207Z,0.000000
2022-09-12T01:37:01.144Z,0.000000
2022-09-12T01:38:01.220Z,0.000000
2022-09-12T01:39:01.169Z,0.000000
2022-09-12T01:40:06.215Z,0.000000
2022-09-12T01:41:00.184Z,0.000000
2022-09-12T01:42:02.737Z,5.000000
2022-09-12T01:43:00.197Z,5.000000
2022-09-12T01:44:00.273Z,5.000000
2022-09-12T01:45:03.045Z,5.000000
2022-09-12T01:46:00.518Z,0.000000
2022-09-12T01:47:00.229Z,0.000000
2022-09-12T01:48:00.307Z,0.000000
2022-09-12T01:49:00.244Z,4.000000
2022-09-12T01:50:03.494Z,4.000000
2022-09-12T01:51:00.273Z,5.100000
2022-09-12T01:52:00.339Z,5.100000
2022-09-12T01:53:00.264Z,5.100000
2022-09-12T01:54:00.352Z,5.100000
2022-09-12T01:55:07.683Z,5.100000
2022-09-12T01:56:00.339Z,0.000000
2022-09-12T01:57:00.309Z,0.000000
2022-09-12T01:58:00.406Z,0.000000
2022-09-12T01:59:00.317Z,0.000000
2022-09-12T02:00:03.659Z,0.000000
2022-09-12T02:01:00.415Z,0.000000
2022-09-12T02:02:00.497Z,4.700000
2022-09-12T02:03:00.367Z,4.700000
2022-09-12T02:04:00.450Z,0.000000
2022-09-12T02:05:03.168Z,0.000000
2022-09-12T02:06:00.463Z,0.000000
2022-09-12T02:07:00.393Z,5.200000
2022-09-12T02:08:00.461Z,5.200000
2022-09-12T02:09:00.416Z,5.900000
2022-09-12T02:10:03.780Z,5.900000
2022-09-12T02:11:00.430Z,6.000000
2022-09-12T02:12:00.511Z,6.000000
2022-09-12T02:13:00.442Z,6.000000
2022-09-12T02:14:00.519Z,6.000000
2022-09-12T02:15:03.226Z,6.000000
2022-09-12T02:16:00.563Z,5.400000
2022-09-12T02:17:00.466Z,5.400000
2022-09-12T02:18:02.983Z,5.400000
2022-09-12T02:19:00.482Z,5.400000
2022-09-12T02:20:04.800Z,5.400000
2022-09-12T02:21:00.493Z,5.400000
2022-09-12T02:22:00.593Z,6.200000
2022-09-12T02:23:00.499Z,6.200000
2022-09-12T02:24:00.585Z,6.200000
2022-09-12T02:25:03.508Z,6.200000
2022-09-12T02:26:00.591Z,6.200000
2022-09-12T02:27:00.559Z,6.100000
2022-09-12T02:28:00.642Z,6.100000
2022-09-12T02:29:00.542Z,7.100000
2022-09-12T02:30:03.715Z,7.100000
2022-09-12T02:31:00.631Z,7.100000
2022-09-12T02:32:00.627Z,7.100000
2022-09-12T02:33:00.576Z,7.100000
2022-09-12T02:34:00.696Z,5.900000
2022-09-12T02:35:04.148Z,5.900000
2022-09-12T02:36:01.916Z,5.900000
2022-09-12T02:37:00.604Z,5.900000
2022-09-12T02:38:00.668Z,5.900000
2022-09-12T02:39:00.636Z,0.000000
2022-09-12T02:40:03.838Z,0.000000
2022-09-12T02:41:00.624Z,5.500000
2022-09-12T02:42:00.712Z,5.500000
2022-09-12T02:43:00.641Z,5.500000
2022-09-12T02:44:00.717Z,5.500000
2022-09-12T02:45:04.775Z,5.500000
2022-09-12T02:46:00.811Z,5.500000
2022-09-12T02:47:00.677Z,7.300000
2022-09-12T02:48:00.736Z,7.300000
2022-09-12T02:49:00.691Z,7.300000
2022-09-12T02:50:04.080Z,7.300000
2022-09-12T02:51:00.738Z,7.300000
2022-09-12T02:52:00.762Z,7.300000
2022-09-12T02:53:00.703Z,7.300000
2022-09-12T02:54:00.792Z,7.600000
2022-09-12T02:55:03.705Z,7.600000
2022-09-12T02:56:00.794Z,7.600000
2022-09-12T02:57:00.770Z,7.600000
2022-09-12T02:58:00.833Z,7.600000
2022-09-12T02:59:00.754Z,7.600000
2022-09-12T03:00:04.187Z,6.700000
2022-09-12T03:01:00.835Z,6.700000
2022-09-12T03:02:00.925Z,4.500000
2022-09-12T03:03:00.836Z,4.500000
2022-09-12T03:04:01.918Z,0.000000
2022-09-12T03:05:03.736Z,0.000000
2022-09-12T03:06:00.926Z,0.000000
2022-09-12T03:07:00.828Z,0.000000
2022-09-12T03:08:00.917Z,0.000000
2022-09-12T03:09:00.883Z,0.000000
2022-09-12T03:10:04.117Z,4.500000
2022-09-12T03:11:00.853Z,4.500000
2022-09-12T03:12:00.936Z,5.900000
2022-09-12T03:13:00.865Z,5.900000
2022-09-12T03:14:00.947Z,5.900000
2022-09-12T03:15:04.074Z,5.900000
2022-09-12T03:16:00.958Z,5.900000
2022-09-12T03:17:00.890Z,7.200000
2022-09-12T03:18:01.930Z,7.200000
2022-09-12T03:19:00.910Z,7.200000
2022-09-12T03:20:04.258Z,7.200000
2022-09-12T03:21:00.938Z,7.200000
2022-09-12T03:22:01.034Z,7.200000
2022-09-12T03:23:00.938Z,7.200000
2022-09-12T03:24:01.022Z,7.200000
2022-09-12T03:25:03.915Z,5.500000
2022-09-12T03:26:01.218Z,5.500000
2022-09-12T03:27:00.975Z,4.700000
2022-09-12T03:28:01.039Z,4.700000
2022-09-12T03:29:00.982Z,4.700000
2022-09-12T03:30:05.953Z,6.200000
2022-09-12T03:31:01.059Z,6.200000
2022-09-12T03:32:02.076Z,5.800000
2022-09-12T03:33:01.017Z,5.800000
2022-09-12T03:34:01.130Z,5.800000
2022-09-12T03:35:03.831Z,4.100000
2022-09-12T03:36:01.111Z,4.100000
2022-09-12T03:37:01.036Z,0.000000
2022-09-12T03:38:01.159Z,0.000000
2022-09-12T03:39:01.066Z,0.000000
2022-09-12T03:40:04.382Z,4.800000
2022-09-12T03:41:01.071Z,4.800000
2022-09-12T03:42:01.138Z,4.800000
2022-09-12T03:43:01.078Z,5.000000
2022-09-12T03:44:01.206Z,5.000000
2022-09-12T03:45:03.937Z,6.400000
2022-09-12T03:46:01.687Z,6.400000
2022-09-12T03:47:01.110Z,6.400000
2022-09-12T03:48:01.181Z,6.400000
2022-09-12T03:49:01.114Z,5.400000
2022-09-12T03:50:04.553Z,5.400000
2022-09-12T03:51:01.145Z,5.400000
2022-09-12T03:52:01.211Z,7.900000
2022-09-12T03:53:01.150Z,7.900000
2022-09-12T03:54:01.256Z,7.900000
2022-09-12T03:55:04.348Z,7.900000
2022-09-12T03:56:01.260Z,7.900000
2022-09-12T03:57:00.185Z,5.200000
2022-09-12T03:58:00.285Z,5.200000
2022-09-12T03:59:00.194Z,5.600000
2022-09-12T04:00:03.460Z,5.600000
2022-09-12T04:01:00.294Z,5.600000
2022-09-12T04:02:00.344Z,4.000000
2022-09-12T04:03:00.240Z,4.000000
2022-09-12T04:04:00.298Z,4.000000
2022-09-12T04:05:03.179Z,4.800000
2022-09-12T04:06:00.337Z,4.800000
2022-09-12T04:07:00.267Z,4.800000
2022-09-12T04:08:00.349Z,4.800000
2022-09-12T04:09:00.279Z,4.800000
2022-09-12T04:10:04.013Z,4.000000
2022-09-12T04:11:00.290Z,4.000000
2022-09-12T04:12:00.373Z,4.000000
2022-09-12T04:13:00.334Z,4.700000
2022-09-12T04:14:00.424Z,4.700000
2022-09-12T04:15:06.664Z,4.000000
2022-09-12T04:16:00.406Z,4.000000
2022-09-12T04:17:00.353Z,4.000000
2022-09-12T04:18:05.691Z,0.000000
2022-09-12T04:19:00.361Z,0.000000
2022-09-12T04:20:03.779Z,5.100000
2022-09-12T04:21:00.383Z,5.100000
2022-09-12T04:22:00.435Z,5.100000
2022-09-12T04:23:00.381Z,5.100000
2022-09-12T04:24:00.468Z,5.100000
2022-09-12T04:25:03.827Z,5.400000
2022-09-12T04:26:00.539Z,5.400000
2022-09-12T04:27:02.813Z,5.400000
2022-09-12T04:28:00.500Z,4.800000
2022-09-12T04:29:00.437Z,4.800000
2022-09-12T04:30:03.847Z,4.800000
2022-09-12T04:31:00.527Z,4.800000
2022-09-12T04:32:01.724Z,4.800000
2022-09-12T04:33:03.014Z,6.200000
2022-09-12T04:34:00.523Z,6.200000
2022-09-12T04:35:03.469Z,6.200000
2022-09-12T04:36:00.568Z,7.900000
2022-09-12T04:37:00.505Z,7.900000
2022-09-12T04:38:00.599Z,7.900000
2022-09-12T04:39:00.517Z,7.900000
2022-09-12T04:40:05.076Z,7.900000
2022-09-12T04:41:00.523Z,7.900000
2022-09-12T04:42:00.634Z,7.900000
2022-09-12T04:43:00.534Z,7.500000
2022-09-12T04:44:00.639Z,7.500000
2022-09-12T04:45:03.422Z,7.500000
2022-09-12T04:46:01.667Z,7.700000
2022-09-12T04:47:00.570Z,7.700000
2022-09-12T04:48:00.642Z,7.700000
2022-09-12T04:49:00.570Z,7.700000
2022-09-12T04:50:06.840Z,7.700000
2022-09-12T04:51:00.612Z,7.200000
2022-09-12T04:52:00.679Z,7.200000
2022-09-12T04:53:00.638Z,7.200000
2022-09-12T04:56:33.517Z,10.100000
2022-09-12T04:57:00.669Z,10.100000
2022-09-12T04:58:00.757Z,10.100000
2022-09-12T04:59:00.673Z,7.900000
2022-09-12T05:00:07.077Z,7.900000
2022-09-12T05:01:00.890Z,7.700000
2022-09-12T05:03:00.723Z,7.700000
2022-09-12T05:03:18.565Z,7.700000
2022-09-12T05:04:01.654Z,7.700000
2022-09-12T05:05:03.766Z,7.700000
2022-09-12T05:06:00.819Z,7.700000
2022-09-12T05:07:00.803Z,7.700000
2022-09-12T05:08:00.842Z,8.200000
2022-09-12T05:09:00.772Z,8.200000
2022-09-12T05:12:05.312Z,8.200000
2022-09-12T05:13:00.793Z,8.200000
2022-09-12T05:14:00.921Z,7.600000
2022-09-12T05:15:05.080Z,7.600000
2022-09-12T05:16:00.873Z,7.600000
2022-09-12T05:17:00.873Z,7.600000
2022-09-12T05:18:01.660Z,7.600000
2022-09-12T05:19:00.832Z,7.600000
2022-09-12T05:20:06.136Z,7.600000
2022-09-12T05:21:00.871Z,7.600000
2022-09-12T05:22:01.670Z,7.600000
2022-09-12T05:23:00.878Z,7.600000
2022-09-12T05:24:00.963Z,6.800000
2022-09-12T05:25:04.997Z,6.800000
2022-09-12T05:26:00.988Z,7.400000
2022-09-12T05:27:00.904Z,7.400000
2022-09-12T05:28:00.991Z,7.400000
2022-09-12T05:29:00.911Z,7.500000
2022-09-12T05:30:05.307Z,7.500000
2022-09-12T05:31:00.974Z,7.900000
2022-09-12T05:32:01.044Z,7.900000
2022-09-12T05:33:00.946Z,7.900000
2022-09-12T05:34:01.014Z,7.900000
2022-09-12T05:35:05.077Z,7.900000
2022-09-12T05:36:01.652Z,7.200000
2022-09-12T05:37:00.972Z,7.200000
2022-09-12T05:38:01.092Z,8.800000
2022-09-12T05:39:00.996Z,8.800000
2022-09-12T05:40:07.790Z,8.800000
2022-09-12T05:41:01.006Z,8.800000
2022-09-12T05:42:01.093Z,8.800000
2022-09-12T05:43:01.015Z,8.600000
2022-09-12T05:44:01.109Z,8.600000
2022-09-12T05:45:04.055Z,8.600000
2022-09-12T05:46:01.237Z,8.800000
2022-09-12T05:47:01.056Z,8.800000
2022-09-12T05:48:01.138Z,8.800000
2022-09-12T05:49:01.061Z,8.800000
2022-09-12T05:50:04.477Z,8.800000
2022-09-12T05:51:01.101Z,8.800000
2022-09-12T05:52:01.165Z,8.800000
2022-09-12T05:53:01.106Z,8.800000
2022-09-12T05:54:01.692Z,7.600000
2022-09-12T05:55:04.003Z,7.600000
2022-09-12T05:56:01.712Z,7.600000
2022-09-12T05:57:01.144Z,9.500000
2022-09-12T05:58:01.199Z,9.500000
2022-09-12T05:59:01.149Z,9.500000
2022-09-12T06:00:04.396Z,9.500000
2022-09-12T06:01:01.232Z,9.500000
2022-09-12T06:02:01.402Z,8.200000
2022-09-12T06:03:01.193Z,8.200000
2022-09-12T06:04:01.657Z,9.000000
2022-09-12T06:05:04.921Z,9.000000
2022-09-12T06:06:01.335Z,9.000000
2022-09-12T06:07:01.217Z,9.900000
2022-09-12T06:08:01.746Z,9.900000
2022-09-12T06:09:01.240Z,8.600000
2022-09-12T06:10:05.703Z,8.600000
2022-09-12T06:11:02.375Z,8.600000
2022-09-12T06:12:01.665Z,9.100000
2022-09-12T06:13:01.261Z,9.100000
2022-09-12T06:14:01.382Z,9.100000
2022-09-12T06:15:07.638Z,9.100000
2022-09-12T06:16:01.655Z,9.100000
2022-09-12T06:17:01.354Z,9.300000
2022-09-12T06:18:01.528Z,9.300000
2022-09-12T06:19:01.315Z,9.300000
2022-09-12T06:20:05.032Z,9.300000
2022-09-12T06:21:01.349Z,9.300000
2022-09-12T06:22:01.415Z,8.100000
2022-09-12T06:23:01.346Z,8.100000
2022-09-12T06:24:01.671Z,7.400000
2022-09-12T06:25:05.746Z,7.400000
2022-09-12T06:26:01.428Z,6.500000
2022-09-12T06:27:01.415Z,6.500000
2022-09-12T06:28:01.672Z,6.500000
2022-09-12T06:29:01.388Z,6.900000
2022-09-12T06:30:04.979Z,6.900000
2022-09-12T06:31:01.596Z,6.900000
2022-09-12T06:32:01.691Z,6.900000
2022-09-12T06:33:01.427Z,6.900000
2022-09-12T06:34:01.659Z,9.300000
2022-09-12T06:35:04.410Z,9.300000
2022-09-12T06:36:01.700Z,9.300000
2022-09-12T06:37:01.472Z,9.300000
2022-09-12T06:38:01.518Z,9.300000
2022-09-12T06:39:01.496Z,9.300000
2022-09-12T06:40:06.141Z,9.300000
2022-09-12T06:41:01.472Z,9.300000
2022-09-12T06:42:01.546Z,7.400000
2022-09-12T06:43:01.510Z,7.400000
2022-09-12T06:44:01.672Z,7.400000
2022-09-12T06:45:04.831Z,7.900000
2022-09-12T06:46:01.641Z,7.900000
2022-09-12T06:47:01.564Z,7.900000
2022-09-12T06:48:01.721Z,7.900000
2022-09-12T06:49:01.541Z,7.800000
2022-09-12T06:50:06.072Z,7.800000
2022-09-12T06:51:01.548Z,7.800000
2022-09-12T06:52:01.707Z,8.300000
2022-09-12T06:53:00.644Z,8.300000
2022-09-12T06:54:00.626Z,8.800000
2022-09-12T06:55:03.560Z,8.800000
2022-09-12T06:56:01.680Z,8.800000
2022-09-12T06:57:00.585Z,8.800000
2022-09-12T06:58:00.709Z,8.800000
2022-09-12T06:59:00.594Z,8.000000
2022-09-12T07:00:05.239Z,8.000000
2022-09-12T07:01:01.653Z,8.000000
2022-09-12T07:02:01.729Z,10.600000
2022-09-12T07:03:01.650Z,10.600000
2022-09-12T07:04:01.700Z,10.600000
2022-09-12T07:05:05.837Z,10.600000
2022-09-12T07:06:01.798Z,10.600000
2022-09-12T07:07:01.771Z,7.600000
2022-09-12T07:08:01.727Z,7.600000
2022-09-12T07:09:01.674Z,9.300000
2022-09-12T07:10:20.296Z,9.300000
2022-09-12T07:11:01.705Z,9.300000
2022-09-12T07:12:01.794Z,10.100000
2022-09-12T07:13:01.750Z,10.100000
2022-09-12T07:14:01.781Z,10.100000
2022-09-12T07:15:06.500Z,8.400000
2022-09-12T07:16:01.784Z,8.400000
2022-09-12T07:17:01.862Z,8.400000
2022-09-12T07:18:01.860Z,8.400000
2022-09-12T07:19:01.755Z,8.400000
2022-09-12T07:20:07.143Z,8.100000
2022-09-12T07:21:01.785Z,8.100000
2022-09-12T07:22:00.921Z,8.300000
2022-09-12T07:23:00.810Z,8.300000
2022-09-12T07:24:01.721Z,8.300000
2022-09-12T07:25:04.008Z,9.000000
2022-09-12T07:26:00.887Z,9.000000
2022-09-12T07:27:00.845Z,9.000000
2022-09-12T07:28:01.677Z,8.900000
2022-09-12T07:29:19.104Z,8.900000
2022-09-12T07:30:06.170Z,9.300000
2022-09-12T07:31:00.899Z,9.300000
2022-09-12T07:32:01.682Z,9.900000
2022-09-12T07:33:00.884Z,9.900000
2022-09-12T07:34:00.941Z,9.900000
2022-09-12T07:35:03.984Z,10.700000
2022-09-12T07:36:01.747Z,10.700000
2022-09-12T07:37:00.908Z,10.700000
2022-09-12T07:38:01.420Z,11.200000
2022-09-12T07:39:01.019Z,11.200000
2022-09-12T07:40:05.392Z,11.200000
2022-09-12T07:41:01.095Z,11.200000
2022-09-12T07:42:01.042Z,11.200000
2022-09-12T07:43:00.950Z,10.900000
2022-09-12T07:44:01.888Z,10.900000
2022-09-12T07:45:05.425Z,10.900000
2022-09-12T07:46:01.110Z,10.900000
2022-09-12T07:47:00.990Z,10.900000
2022-09-12T07:48:01.715Z,10.300000
2022-09-12T07:49:00.998Z,10.300000
2022-09-12T07:50:04.413Z,10.300000
2022-09-12T07:51:01.017Z,10.300000
2022-09-12T07:52:01.690Z,10.300000
2022-09-12T07:53:01.146Z,10.800000
2022-09-12T07:54:01.171Z,10.800000
2022-09-12T07:55:04.618Z,9.100000
2022-09-12T07:56:01.729Z,9.100000
2022-09-12T07:57:01.065Z,9.100000
2022-09-12T07:58:01.132Z,11.200000
2022-09-12T07:59:01.093Z,11.200000
2022-09-12T08:00:05.504Z,11.200000
2022-09-12T08:01:00.145Z,10.800000
2022-09-12T08:02:00.167Z,10.800000
2022-09-12T08:03:00.105Z,10.800000
2022-09-12T08:04:01.711Z,11.500000
2022-09-12T08:05:06.846Z,11.500000
2022-09-12T08:06:00.210Z,11.500000
2022-09-12T08:07:00.291Z,11.500000
2022-09-12T08:08:01.688Z,15.200000
2022-09-12T08:09:00.164Z,15.200000
2022-09-12T08:10:06.497Z,15.200000
2022-09-12T08:11:00.203Z,15.200000
2022-09-12T08:12:01.679Z,15.200000
2022-09-12T08:13:00.188Z,11.400000
2022-09-12T08:14:00.282Z,11.400000
2022-09-12T08:15:03.339Z,11.400000
2022-09-12T08:16:01.772Z,11.700000
2022-09-12T08:17:00.221Z,11.700000
2022-09-12T08:18:00.350Z,13.700000
2022-09-12T08:19:00.320Z,13.700000
2022-09-12T08:20:04.588Z,13.700000
2022-09-12T08:21:00.305Z,12.000000
2022-09-12T08:22:00.344Z,12.000000
2022-09-12T08:23:00.255Z,12.900000
2022-09-12T08:24:01.701Z,12.900000
2022-09-12T08:25:03.091Z,12.900000
2022-09-12T08:26:04.133Z,9.600000
2022-09-12T08:27:00.399Z,9.600000
2022-09-12T08:28:01.765Z,10.700000
2022-09-12T08:29:00.312Z,10.700000
2022-09-12T08:30:04.622Z,10.700000
2022-09-12T08:31:00.416Z,10.700000
2022-09-12T08:32:01.688Z,10.700000
2022-09-12T08:33:00.347Z,12.500000
2022-09-12T08:34:00.459Z,12.500000
2022-09-12T08:35:03.377Z,12.500000
2022-09-12T08:36:01.701Z,12.700000
2022-09-12T08:37:00.366Z,12.700000
2022-09-12T08:38:00.440Z,12.700000
2022-09-12T08:39:00.675Z,12.700000
2022-09-12T08:40:03.910Z,13.300000
2022-09-12T08:41:00.396Z,13.300000
2022-09-12T08:42:00.574Z,13.300000
2022-09-12T08:43:00.407Z,13.100000
2022-09-12T08:44:00.475Z,13.100000
2022-09-12T08:45:03.214Z,13.100000
2022-09-12T08:46:00.601Z,13.100000
2022-09-12T08:47:00.441Z,13.100000
2022-09-12T08:48:00.720Z,11.100000
2022-09-12T08:49:00.458Z,11.100000
2022-09-12T08:50:05.032Z,11.100000
2022-09-12T08:51:00.481Z,11.100000
2022-09-12T08:52:00.565Z,11.100000
2022-09-12T08:53:00.493Z,9.000000
2022-09-12T08:54:01.696Z,9.000000
2022-09-12T08:55:03.593Z,9.000000
2022-09-12T08:56:01.702Z,11.800000
2022-09-12T08:57:00.521Z,11.800000
2022-09-12T08:58:00.645Z,11.800000
2022-09-12T08:59:00.574Z,13.300000
2022-09-12T09:00:06.701Z,13.300000
2022-09-12T09:01:01.538Z,10.200000
2022-09-12T09:02:02.457Z,10.200000
2022-09-12T09:03:01.613Z,11.300000
2022-09-12T09:04:02.779Z,11.300000
2022-09-12T09:05:05.674Z,11.300000
2022-09-12T09:06:01.786Z,9.300000
2022-09-12T09:07:01.765Z,9.300000
2022-09-12T09:08:03.531Z,9.300000
2022-09-12T09:09:01.604Z,10.900000
2022-09-12T09:10:07.402Z,10.900000
2022-09-12T09:11:01.626Z,10.900000
2022-09-12T09:12:02.381Z,10.900000
2022-09-12T09:13:01.674Z,10.800000
2022-09-12T09:14:05.003Z,10.800000
2022-09-12T09:15:06.486Z,10.800000
2022-09-12T09:16:01.845Z,10.700000
2022-09-12T09:17:01.707Z,10.700000
2022-09-12T09:18:01.746Z,10.700000
2022-09-12T09:19:01.681Z,9.500000
2022-09-12T09:20:07.112Z,9.500000
2022-09-12T09:21:01.711Z,9.500000
2022-09-12T09:22:01.763Z,10.300000
2022-09-12T09:23:01.719Z,10.300000
2022-09-12T09:24:01.848Z,12.700000
2022-09-12T09:25:04.754Z,12.700000
2022-09-12T09:26:01.820Z,10.800000
2022-09-12T09:27:01.772Z,10.800000
2022-09-12T09:28:01.818Z,10.800000
2022-09-12T09:29:01.826Z,12.400000
2022-09-12T09:30:06.324Z,12.400000
2022-09-12T09:31:01.880Z,10.300000
2022-09-12T09:32:01.868Z,10.300000
2022-09-12T09:33:01.866Z,10.300000
2022-09-12T09:34:01.847Z,10.300000
2022-09-12T09:35:06.296Z,10.300000
2022-09-12T09:36:02.056Z,11.500000
2022-09-12T09:37:01.853Z,11.500000
2022-09-12T09:38:01.988Z,11.500000
2022-09-12T09:39:01.942Z,14.900000
2022-09-12T09:40:05.426Z,14.900000
2022-09-12T09:41:00.961Z,14.900000
2022-09-12T09:42:01.736Z,11.500000
2022-09-12T09:43:00.902Z,11.500000
2022-09-12T09:44:01.174Z,12.300000
2022-09-12T09:45:05.432Z,12.300000
2022-09-12T09:46:01.750Z,12.300000
2022-09-12T09:47:01.008Z,12.900000
2022-09-12T09:48:01.311Z,12.900000
2022-09-12T09:49:01.888Z,12.900000
2022-09-12T09:50:04.344Z,14.600000
2022-09-12T09:51:00.921Z,14.600000
2022-09-12T09:52:01.354Z,14.600000
2022-09-12T09:53:00.930Z,14.600000
2022-09-12T09:54:01.837Z,12.600000
2022-09-12T09:55:05.583Z,12.600000
2022-09-12T09:56:01.769Z,13.600000
2022-09-12T09:57:00.969Z,13.600000
2022-09-12T09:58:01.402Z,13.600000
2022-09-12T09:59:00.973Z,14.300000
2022-09-12T10:00:05.426Z,14.300000
2022-09-12T10:01:00.139Z,14.300000
2022-09-12T10:02:00.120Z,9.600000
2022-09-12T10:03:00.096Z,9.600000
2022-09-12T10:04:01.718Z,12.000000
2022-09-12T10:05:03.329Z,12.000000
2022-09-12T10:06:00.115Z,12.000000
2022-09-12T10:07:00.319Z,10.900000
2022-09-12T10:08:01.712Z,10.900000
2022-09-12T10:09:00.052Z,10.900000
2022-09-12T10:10:03.281Z,12.500000
2022-09-12T10:11:00.068Z,12.500000
2022-09-12T10:12:02.178Z,12.800000
2022-09-12T10:13:00.082Z,12.800000
2022-09-12T10:14:00.144Z,12.800000
2022-09-12T10:15:03.149Z,13.100000
2022-09-12T10:16:01.788Z,13.100000
2022-09-12T10:17:00.104Z,13.300000
2022-09-12T10:18:00.206Z,13.300000
2022-09-12T10:19:00.126Z,12.300000
2022-09-12T10:20:20.420Z,12.300000
2022-09-12T10:21:00.141Z,12.300000
2022-09-12T10:22:00.183Z,16.200000
2022-09-12T10:23:00.201Z,16.200000
2022-09-12T10:24:01.746Z,16.200000
2022-09-12T10:25:03.279Z,16.200000
2022-09-12T10:26:00.229Z,16.200000
2022-09-12T10:27:00.214Z,12.900000
2022-09-12T10:28:01.729Z,12.900000
2022-09-12T10:29:00.184Z,15.300000
2022-09-12T10:30:03.622Z,15.300000
2022-09-12T10:31:00.237Z,15.300000
2022-09-12T10:32:02.123Z,12.800000
2022-09-12T10:33:00.220Z,12.800000
2022-09-12T10:34:00.275Z,11.500000
2022-09-12T10:35:03.434Z,11.500000
2022-09-12T10:36:01.763Z,11.500000
2022-09-12T10:37:00.336Z,13.100000
2022-09-12T10:38:00.396Z,13.100000
2022-09-12T10:39:00.254Z,13.100000
2022-09-12T10:40:05.124Z,13.100000
2022-09-12T10:41:00.401Z,13.100000
2022-09-12T10:42:00.656Z,15.300000
2022-09-12T10:43:00.286Z,15.300000
2022-09-12T10:44:01.067Z,15.300000
2022-09-12T10:45:04.633Z,11.300000
2022-09-12T10:46:00.558Z,11.300000
2022-09-12T10:47:00.319Z,11.300000
2022-09-12T10:48:05.507Z,12.400000
2022-09-12T10:49:00.369Z,12.400000
2022-09-12T10:50:05.964Z,12.400000
2022-09-12T10:51:00.368Z,12.400000
2022-09-12T10:52:00.524Z,12.100000
2022-09-12T10:53:00.369Z,12.100000
2022-09-12T10:54:00.668Z,12.100000
2022-09-12T10:55:03.384Z,16.200000
2022-09-12T10:56:02.829Z,16.200000
2022-09-12T10:57:00.411Z,16.200000
2022-09-12T10:58:01.034Z,12.600000
2022-09-12T10:59:00.422Z,12.600000
2022-09-12T11:00:04.096Z,12.400000
2022-09-12T11:01:00.504Z,12.400000
2022-09-12T11:02:01.128Z,16.100000
2022-09-12T11:03:00.460Z,16.100000
2022-09-12T11:04:01.810Z,16.100000
2022-09-12T11:05:03.525Z,14.500000
2022-09-12T11:06:01.901Z,14.500000
2022-09-12T11:07:00.512Z,14.500000
2022-09-12T11:08:00.562Z,16.200000
2022-09-12T11:09:00.504Z,16.200000
2022-09-12T11:10:04.890Z,15.800000
2022-09-12T11:11:00.531Z,15.800000
2022-09-12T11:12:01.257Z,15.800000
2022-09-12T11:13:00.531Z,9.700000
2022-09-12T11:14:00.634Z,9.700000
2022-09-12T11:15:03.611Z,16.700000
2022-09-12T11:16:00.692Z,16.700000
2022-09-12T11:17:00.566Z,16.700000
2022-09-12T11:18:01.506Z,16.700000
2022-09-12T11:19:00.609Z,16.700000
2022-09-12T11:20:05.243Z,14.200000
2022-09-12T11:21:00.682Z,14.200000
2022-09-12T11:22:01.696Z,14.200000
2022-09-12T11:23:00.616Z,12.600000
2022-09-12T11:24:01.856Z,12.600000
2022-09-12T11:25:03.432Z,12.600000
2022-09-12T11:26:00.735Z,12.600000
2022-09-12T11:27:00.664Z,12.600000
2022-09-12T11:28:00.712Z,13.000000
2022-09-12T11:29:00.649Z,13.000000
2022-09-12T11:30:05.030Z,13.000000
2022-09-12T11:31:00.837Z,11.800000
2022-09-12T11:32:00.746Z,11.800000
2022-09-12T11:33:00.689Z,11.800000
2022-09-12T11:34:00.748Z,11.800000
2022-09-12T11:35:03.604Z,12.100000
2022-09-12T11:36:00.819Z,12.100000
2022-09-12T11:37:00.699Z,12.200000
2022-09-12T11:38:01.744Z,12.200000
2022-09-12T11:39:00.712Z,12.200000
2022-09-12T11:40:04.186Z,17.100000
2022-09-12T11:41:00.728Z,17.100000